Chetopa, Kansas
Current Conditions -  °F | °C
As of 5:52 AM on Saturday 22 Nov 2014 (Local Time) from KCFV Reporting Station
Overcast Overcast  
Wind Chill: 56°   Ceiling: 1100
Heat Index: 56°   Visibility: 10mi
Dew Point: 53°   Wind: 14mph
Humidity: 90%   Direction: 180°S
Pressure: 30.01"   Gusts: 24mph
Location:  37.04°N, 95.09°W
Report Text: KCFV 221152Z AUTO 18012G21KT 10SM OVC011 13/12 A3001 RMK AO2 SLP163 60000 7//// T01330117 10133 20122 58018
Loading
Personal Weather Stations






























Interactive Weather Map New forecast layout! Learn more

10-Day Weather Forecast

Advertisements
Track Severe Weather on mobile